Bend, OR

5:47 PM PDT on March 31, 2015 (GMT -0700)
Mahlon Sweet | | Change Station
CLOSE
Current Station
Airport
Location: Eugene,
Elevation: 374 ft
Nearby Weather Stations

Elev 374 ft 44.12 °N, 123.21 °W | Updated 53 minutes ago

Rain
Rain
55 °F
Feels Like 55 °F
N
10
Wind Variable Wind from West

Today
High -- | Low -- °F
--% Chance of Precip.
Yesterday
High -- | Low -- °F
Precip. -- in
6:48 AM 7:30 PM
Waxing Gibbous, 89% visible
Pressure 30.25 in
Visibility 10.0 miles
Clouds Mostly Cloudy 3400 ft
Mostly Cloudy 8000 ft
Dew Point 41 °F
Humidity 59%
Rainfall 0.07 in
Snow Depth Not available.
UV 2 out of 12
Pollen 3.80 out of 12
Air Quality Not available.
Flu Activity Not available.
METAR KEUG 312354Z 26009KT 10SM BKN034 BKN080 13/05 A3025 RMK AO2 SLP244 CB DSNT E TCU DSNT N 60005 T01280050 10128 20083 50001

More Conditions Fewer Conditions

Pressure 30.25 in
Visibility 10.0 miles
Clouds Mostly Cloudy 3400 ft
Mostly Cloudy 8000 ft
Dew Point 41 °F
Humidity 59%
Rainfall 0.07 in
Snow Depth Not available.
UV 2 out of 12
Pollen 3.80 out of 12
Air Quality Not available.
Flu Activity Not available.
METAR KEUG 312354Z 26009KT 10SM BKN034 BKN080 13/05 A3025 RMK AO2 SLP244 CB DSNT E TCU DSNT N 60005 T01280050 10128 20083 50001

More Conditions Fewer Conditions

10-Day Weather Forecast

Almanac

Astronomy

Mar. 31, 2015 Rise Set
Actual Time
Civil Twilight
Nautical Twilight
Astronomical Twilight
Moon
Length of Visible Light
Length of Day
Tomorrow will be .
, % of the Moon is Illuminated

Today's Extremes

State Highs State Lows

Community

WunderPhotos

Upload Photos

1,809,887 photos uploaded!

WunderBlogs® & News

Nearby

Air Quality

  Air Quality AQ Index Pollutant
Not available.

Snow Depth

Station Depth Elevation

Earthquake Activity

City Distance Mag. Time & Date
Minimum magnitude displayed is 2.5.

Coastal Water Temperatures

Place Temperature

Stations

Nearby Weather Stations

Station Location Temp. Windchill Dew Point Humidity Wind Precip. Elev Updated Type